Gorman, Texas
Current Conditions -  °F | °C
As of 6:15 PM on Monday 24 Nov 2014 (Local Time) from KMKN Reporting Station
Clear Clear  
Wind Chill: 50°   Ceiling: Unl
Heat Index: 50°   Visibility: 10mi
Dew Point: 29°   Wind: 6mph
Humidity: 45%   Direction: 210°SSW
Pressure: 30.09"   Gusts: NA
Location:  32.21°N, 98.67°W
Report Text: KMKN 250015Z AUTO 21005KT 10SM CLR 10/M02 A3009 RMK AO2 T01001016
Loading
Personal Weather Stations






























Interactive Weather Map New forecast layout! Learn more

10-Day Weather Forecast

Advertisements
Track Severe Weather on mobile